Time;durP1;ratioP1;P1;durP2;ratioP2;P2;SDS_P1;SDS_P2;PMS_P1;PMS_P2;Temp;Humidity;BMP_temperature;BMP_pressure;BME280_temperature;BME280_humidity;BME280_pressure;Samples;Min_cycle;Max_cycle;Signal;HPM_P1;HPM_P2
2023/04/05 00:01:29;;;;;;;13.13;7.00;;;2.50;70.40;;;;;;4990870;28;20448;-71
2023/04/05 00:03:59;;;;;;;12.83;6.67;;;2.60;69.90;;;;;;4989564;28;20457;-71
2023/04/05 00:06:25;;;;;;;12.23;7.30;;;2.60;70.40;;;;;;4987130;28;20920;-73
2023/04/05 00:08:54;;;;;;;11.00;6.40;;;2.60;69.80;;;;;;4989367;28;20516;-71
2023/04/05 00:11:21;;;;;;;10.80;6.20;;;2.60;69.40;;;;;;4991514;28;20426;-72
2023/04/05 00:13:47;;;;;;;10.47;5.87;;;2.60;69.50;;;;;;4989183;28;20808;-71
2023/04/05 00:16:13;;;;;;;11.97;6.47;;;2.60;69.70;;;;;;4987439;28;20436;-72
2023/04/05 00:18:44;;;;;;;12.47;6.80;;;2.60;69.50;;;;;;4992307;28;20437;-70
2023/04/05 00:21:13;;;;;;;10.73;6.20;;;2.60;69.50;;;;;;4987908;28;20455;-71
2023/04/05 00:23:40;;;;;;;11.43;7.03;;;2.50;69.80;;;;;;4988467;28;20504;-71
2023/04/05 00:26:06;;;;;;;8.67;5.63;;;2.50;69.80;;;;;;4990526;28;20461;-73
2023/04/05 00:28:32;;;;;;;10.60;5.87;;;2.60;69.40;;;;;;4990422;28;20831;-71
2023/04/05 00:30:57;;;;;;;13.37;6.07;;;2.60;69.20;;;;;;4990555;28;20441;-72
2023/04/05 00:33:23;;;;;;;11.20;6.23;;;2.60;69.10;;;;;;4992231;28;20671;-72
2023/04/05 00:35:48;;;;;;;10.07;6.00;;;2.60;69.10;;;;;;4992503;28;20637;-71
2023/04/05 00:38:14;;;;;;;10.70;6.90;;;2.50;69.10;;;;;;4989934;28;20209;-71
2023/04/05 00:40:40;;;;;;;15.40;6.27;;;2.50;69.20;;;;;;4990951;28;20182;-71
2023/04/05 00:43:05;;;;;;;10.77;5.90;;;2.50;69.70;;;;;;4988352;28;20248;-72
2023/04/05 00:45:31;;;;;;;10.77;6.20;;;2.50;69.70;;;;;;4992465;28;20290;-73
2023/04/05 00:47:56;;;;;;;11.67;6.47;;;2.50;69.40;;;;;;4990398;28;20202;-71
2023/04/05 00:50:23;;;;;;;11.40;6.23;;;2.40;69.50;;;;;;4991040;28;20721;-71
2023/04/05 00:52:49;;;;;;;11.25;7.05;;;2.40;69.70;;;;;;4985664;28;20190;-71
2023/04/05 00:55:16;;;;;;;11.57;6.55;;;2.30;69.80;;;;;;4992631;28;20266;-72
2023/04/05 00:57:44;;;;;;;10.15;6.30;;;2.30;69.90;;;;;;4990250;28;20191;-72
2023/04/05 01:00:10;;;;;;;13.40;6.15;;;2.20;70.10;;;;;;4989018;28;20206;-72
2023/04/05 01:02:48;;;;;;;9.70;6.07;;;2.20;70.40;;;;;;4983917;28;20189;-72
2023/04/05 01:05:38;;;;;;;12.10;6.67;;;2.20;70.50;;;;;;4989809;28;20214;-72
2023/04/05 01:08:26;;;;;;;11.95;6.03;;;2.10;70.70;;;;;;4991026;28;20425;-72
2023/04/05 01:10:56;;;;;;;12.15;7.00;;;2.00;71.00;;;;;;4986796;28;20179;-71
2023/04/05 01:13:24;;;;;;;10.18;6.65;;;2.00;71.00;;;;;;4987521;28;20202;-71
2023/04/05 01:15:50;;;;;;;12.23;6.28;;;2.00;70.80;;;;;;4984273;28;20183;-72
2023/04/05 01:18:16;;;;;;;14.07;6.23;;;1.90;71.00;;;;;;4995391;28;20190;-71
2023/04/05 01:20:52;;;;;;;11.70;6.97;;;1.90;71.00;;;;;;4991870;28;20441;-70
2023/04/05 01:23:33;;;;;;;11.43;6.53;;;1.90;71.00;;;;;;4987484;28;20600;-72
2023/04/05 01:26:22;;;;;;;12.50;7.20;;;1.90;71.10;;;;;;4989852;28;20470;-71
2023/04/05 01:29:20;;;;;;;13.70;7.45;;;1.90;71.30;;;;;;4990300;28;20414;-71
2023/04/05 01:31:55;;;;;;;10.57;6.00;;;1.90;71.40;;;;;;4983397;28;20205;-71
2023/04/05 01:34:32;;;;;;;13.48;6.70;;;1.90;71.30;;;;;;4989861;28;20213;-71
2023/04/05 01:37:04;;;;;;;11.52;6.95;;;1.80;71.40;;;;;;4991753;28;20244;-71
2023/04/05 01:39:30;;;;;;;11.98;6.43;;;1.80;71.80;;;;;;4991902;28;20182;-71
2023/04/05 01:42:01;;;;;;;11.52;6.97;;;1.80;72.30;;;;;;4991651;28;20187;-71
2023/04/05 01:44:27;;;;;;;12.13;6.63;;;1.80;72.40;;;;;;4990566;28;20214;-71
2023/04/05 01:46:53;;;;;;;11.40;6.90;;;1.80;72.10;;;;;;4991663;28;20477;-72
2023/04/05 01:49:19;;;;;;;14.30;6.83;;;1.80;71.80;;;;;;4992246;28;20436;-71
2023/04/05 01:51:45;;;;;;;10.95;6.22;;;1.80;71.70;;;;;;4989095;28;20199;-71
2023/04/05 01:54:10;;;;;;;13.47;7.23;;;1.70;71.80;;;;;;4996377;28;20202;-71
2023/04/05 01:56:36;;;;;;;12.57;6.70;;;1.70;71.80;;;;;;4993533;28;20236;-72
2023/04/05 01:59:01;;;;;;;11.13;6.20;;;1.60;71.80;;;;;;4992026;28;20241;-71
2023/04/05 02:01:27;;;;;;;11.50;7.30;;;1.60;72.30;;;;;;4990020;28;20195;-72
2023/04/05 02:03:53;;;;;;;8.70;6.30;;;1.60;72.40;;;;;;4992905;28;20307;-71
2023/04/05 02:06:18;;;;;;;12.20;7.80;;;1.60;72.40;;;;;;4990080;28;20219;-72
2023/04/05 02:08:44;;;;;;;11.93;6.23;;;1.50;72.60;;;;;;4991396;28;20206;-71
2023/04/05 02:11:10;;;;;;;12.23;6.50;;;1.50;72.60;;;;;;4991246;28;20186;-71
2023/04/05 02:13:35;;;;;;;12.10;6.87;;;1.50;72.60;;;;;;4993772;28;20214;-72
2023/04/05 02:16:01;;;;;;;11.70;6.23;;;1.50;72.60;;;;;;4994177;28;20290;-71
2023/04/05 02:18:30;;;;;;;14.33;7.10;;;1.40;72.60;;;;;;4998428;28;20741;-72
2023/04/05 02:21:03;;;;;;;10.20;6.97;;;1.40;72.70;;;;;;4990682;28;20187;-70
2023/04/05 02:23:29;;;;;;;14.65;7.45;;;1.30;72.70;;;;;;4994759;28;20973;-72
2023/04/05 02:25:56;;;;;;;9.98;6.40;;;1.30;72.70;;;;;;4993380;28;20206;-72
2023/04/05 02:28:21;;;;;;;13.85;7.00;;;1.30;72.60;;;;;;4999067;28;20189;-71
2023/04/05 02:30:47;;;;;;;11.00;6.80;;;1.30;72.70;;;;;;4992108;28;20282;-71
2023/04/05 02:33:13;;;;;;;10.37;6.37;;;1.30;72.90;;;;;;4992795;28;20199;-72
2023/04/05 02:35:38;;;;;;;13.33;7.33;;;1.30;73.20;;;;;;4995254;28;20186;-73
2023/04/05 02:38:04;;;;;;;14.30;7.40;;;1.30;73.00;;;;;;4999413;28;20194;-72
2023/04/05 02:40:31;;;;;;;13.50;7.60;;;1.30;73.30;;;;;;4996714;28;20194;-71
2023/04/05 02:42:56;;;;;;;13.82;7.93;;;1.30;73.20;;;;;;4999906;28;20452;-72
2023/04/05 02:45:22;;;;;;;13.43;7.70;;;1.30;73.00;;;;;;4998114;28;20218;-73
2023/04/05 02:47:48;;;;;;;13.37;7.43;;;1.30;72.70;;;;;;5000246;28;20195;-71
2023/04/05 02:50:13;;;;;;;12.60;8.40;;;1.20;72.70;;;;;;4989077;28;20212;-71
2023/04/05 02:52:39;;;;;;;11.50;7.03;;;1.20;73.00;;;;;;4994550;28;20562;-71
2023/04/05 02:55:05;;;;;;;9.43;6.63;;;1.20;73.00;;;;;;4991321;28;20289;-72
2023/04/05 02:57:31;;;;;;;11.88;7.05;;;1.20;73.00;;;;;;4989139;28;20190;-71
2023/04/05 02:59:56;;;;;;;12.40;7.67;;;1.20;73.30;;;;;;4993856;28;20266;-71
2023/04/05 03:02:22;;;;;;;10.40;7.33;;;1.20;73.50;;;;;;4992354;28;20227;-70
2023/04/05 03:04:51;;;;;;;12.40;7.77;;;1.30;73.30;;;;;;4996876;28;20911;-71
2023/04/05 03:07:17;;;;;;;10.75;7.10;;;1.20;73.50;;;;;;4992905;28;20191;-72
2023/04/05 03:09:45;;;;;;;11.27;7.63;;;1.20;73.30;;;;;;4991978;28;20190;-72
2023/04/05 03:12:11;;;;;;;17.45;8.63;;;1.20;73.50;;;;;;4993140;28;20191;-71
2023/04/05 03:14:37;;;;;;;14.20;7.33;;;1.20;73.50;;;;;;4996122;28;20222;-72
2023/04/05 03:17:03;;;;;;;9.73;6.82;;;1.20;73.50;;;;;;4993358;28;20765;-73
2023/04/05 03:19:28;;;;;;;12.87;7.07;;;1.20;73.70;;;;;;4992854;28;20214;-72
2023/04/05 03:21:54;;;;;;;11.87;7.13;;;1.10;73.90;;;;;;4994616;28;20562;-71
2023/04/05 03:24:20;;;;;;;12.80;7.13;;;1.20;74.50;;;;;;5007489;28;20249;-72
2023/04/05 03:26:47;;;;;;;13.23;7.00;;;1.20;74.60;;;;;;5007285;28;20827;-72
2023/04/05 03:29:12;;;;;;;17.50;8.00;;;1.20;74.30;;;;;;4999850;28;20210;-71
2023/04/05 03:31:38;;;;;;;12.33;7.13;;;1.10;74.30;;;;;;5002540;28;20182;-72
2023/04/05 03:34:04;;;;;;;11.57;7.70;;;1.10;74.50;;;;;;4995533;28;20217;-72
2023/04/05 03:36:41;;;;;;;12.87;7.07;;;1.10;74.50;;;;;;5002986;28;20194;-71
2023/04/05 03:39:12;;;;;;;12.73;7.45;;;1.10;74.50;;;;;;4996638;28;20795;-71
2023/04/05 03:41:39;;;;;;;13.68;7.65;;;1.00;74.50;;;;;;5001458;28;20244;-72
2023/04/05 03:44:05;;;;;;;13.50;8.50;;;1.00;74.80;;;;;;4997489;28;20241;-72
2023/04/05 03:46:31;;;;;;;14.10;7.65;;;1.00;75.10;;;;;;4999837;28;20726;-71
2023/04/05 03:48:57;;;;;;;17.07;7.70;;;0.90;75.10;;;;;;4993815;28;20182;-72
2023/04/05 03:51:23;;;;;;;11.55;7.38;;;0.90;75.40;;;;;;4995962;28;20454;-71
2023/04/05 03:53:50;;;;;;;13.23;7.00;;;0.80;75.40;;;;;;4988859;28;20249;-72
2023/04/05 03:56:16;;;;;;;11.95;7.13;;;0.80;75.50;;;;;;4990167;28;20650;-72
2023/04/05 03:58:42;;;;;;;16.08;7.88;;;0.80;75.50;;;;;;4989665;28;20222;-71
2023/04/05 04:01:07;;;;;;;15.00;8.73;;;0.70;75.70;;;;;;4994261;28;20217;-73
2023/04/05 04:03:36;;;;;;;14.77;8.60;;;0.70;75.70;;;;;;4993782;28;20218;-71
2023/04/05 04:06:02;;;;;;;13.57;8.10;;;0.60;75.70;;;;;;4997224;28;20268;-71
2023/04/05 04:08:28;;;;;;;12.48;7.55;;;0.60;75.90;;;;;;4990677;28;20280;-72
2023/04/05 04:10:53;;;;;;;15.53;8.80;;;0.60;75.90;;;;;;4990346;28;20240;-73
2023/04/05 04:13:19;;;;;;;17.63;8.30;;;0.60;75.90;;;;;;4990934;28;20237;-71
2023/04/05 04:15:45;;;;;;;12.37;7.73;;;0.60;75.90;;;;;;4993898;28;20557;-72
2023/04/05 04:18:11;;;;;;;12.95;7.68;;;0.60;75.90;;;;;;4991107;28;20316;-72
2023/04/05 04:20:37;;;;;;;12.23;7.80;;;0.60;75.90;;;;;;4991883;28;20281;-72
2023/04/05 04:23:03;;;;;;;15.63;7.75;;;0.50;76.10;;;;;;4991277;28;20178;-72
2023/04/05 04:25:29;;;;;;;14.10;8.30;;;0.50;76.10;;;;;;4997452;28;20206;-72
2023/04/05 04:27:55;;;;;;;16.37;8.53;;;0.50;76.10;;;;;;4991202;28;20245;-71
2023/04/05 04:30:21;;;;;;;12.50;7.78;;;0.40;76.10;;;;;;4992815;28;20225;-72
2023/04/05 04:32:50;;;;;;;16.53;7.70;;;0.40;76.10;;;;;;4992247;28;20178;-72
2023/04/05 04:35:19;;;;;;;14.75;8.10;;;0.40;76.20;;;;;;4994660;28;20206;-72
2023/04/05 04:37:46;;;;;;;13.40;8.05;;;0.40;76.20;;;;;;4990818;28;20201;-71
2023/04/05 04:40:18;;;;;;;13.73;7.93;;;0.40;76.20;;;;;;4991743;28;20221;-72
2023/04/05 04:42:47;;;;;;;17.40;9.40;;;0.40;76.20;;;;;;4984982;28;20245;-72
2023/04/05 04:45:18;;;;;;;18.23;8.38;;;0.30;76.20;;;;;;4987884;28;20183;-73
2023/04/05 04:47:45;;;;;;;13.57;7.82;;;0.30;76.20;;;;;;4991306;28;20534;-72
2023/04/05 04:50:12;;;;;;;12.52;7.90;;;0.30;76.20;;;;;;4987760;28;20175;-72
2023/04/05 04:52:39;;;;;;;14.02;8.23;;;0.30;76.40;;;;;;4989805;28;20178;-72
2023/04/05 04:55:06;;;;;;;18.38;8.52;;;0.40;76.20;;;;;;4991147;28;20258;-72
2023/04/05 04:57:32;;;;;;;15.75;9.15;;;0.40;76.20;;;;;;4991206;28;20716;-71
2023/04/05 04:59:58;;;;;;;14.67;8.67;;;0.40;76.20;;;;;;4992592;28;20183;-72
2023/04/05 05:02:24;;;;;;;20.13;9.47;;;0.40;76.20;;;;;;4992715;28;20198;-71
2023/04/05 05:04:50;;;;;;;16.75;8.38;;;0.40;76.40;;;;;;4989233;28;20210;-72
2023/04/05 05:07:16;;;;;;;18.10;8.70;;;0.40;76.40;;;;;;4991173;28;20199;-71
2023/04/05 05:09:42;;;;;;;17.60;9.23;;;0.40;76.40;;;;;;4990355;28;20442;-72
2023/04/05 05:12:08;;;;;;;15.25;8.93;;;0.40;76.50;;;;;;4991761;28;20613;-73
2023/04/05 05:14:34;;;;;;;14.07;8.20;;;0.40;76.50;;;;;;4988204;28;20256;-73
2023/04/05 05:16:59;;;;;;;16.10;9.48;;;0.50;76.50;;;;;;4991606;28;20231;-72
2023/04/05 05:19:25;;;;;;;21.60;9.30;;;0.50;76.70;;;;;;4992245;28;20221;-72
2023/04/05 05:21:52;;;;;;;16.10;8.80;;;0.50;76.80;;;;;;4993040;28;20179;-71
2023/04/05 05:24:18;;;;;;;13.95;8.77;;;0.60;76.70;;;;;;4991515;28;20221;-72
2023/04/05 05:26:44;;;;;;;20.73;9.67;;;0.70;76.50;;;;;;4995474;28;20884;-69
2023/04/05 05:29:09;;;;;;;19.00;9.47;;;0.70;76.20;;;;;;4994837;28;20429;-68
2023/04/05 05:31:35;;;;;;;18.27;9.10;;;0.70;76.20;;;;;;4992027;28;20201;-71
2023/04/05 05:34:01;;;;;;;18.10;8.87;;;0.70;76.20;;;;;;4996566;28;20289;-72
2023/04/05 05:36:26;;;;;;;15.60;9.50;;;0.70;76.10;;;;;;5000954;28;20712;-71
2023/04/05 05:38:53;;;;;;;17.83;10.23;;;0.60;76.20;;;;;;4993529;28;20191;-69
2023/04/05 05:41:20;;;;;;;18.20;10.30;;;0.70;76.40;;;;;;4994402;28;20996;-70
2023/04/05 05:43:45;;;;;;;15.50;9.23;;;0.70;76.40;;;;;;4992349;28;20249;-71
2023/04/05 05:46:11;;;;;;;19.80;9.27;;;0.70;76.20;;;;;;4996618;28;20198;-72
2023/04/05 05:48:37;;;;;;;19.13;9.80;;;0.70;76.20;;;;;;4996218;28;20182;-71
2023/04/05 05:51:08;;;;;;;14.47;9.00;;;0.70;76.10;;;;;;4999553;28;20175;-73
2023/04/05 05:53:35;;;;;;;18.55;11.13;;;0.70;76.10;;;;;;4996222;28;20298;-69
2023/04/05 05:56:01;;;;;;;18.40;9.52;;;0.70;76.20;;;;;;4995838;28;20193;-70
2023/04/05 05:58:26;;;;;;;16.30;9.40;;;0.70;76.40;;;;;;4996330;28;20681;-73
2023/04/05 06:00:55;;;;;;;17.43;9.80;;;0.70;76.40;;;;;;4995459;28;20182;-70
2023/04/05 06:03:22;;;;;;;25.45;10.50;;;0.70;76.20;;;;;;4992521;28;20203;-72
2023/04/05 06:05:55;;;;;;;21.35;10.85;;;0.80;76.20;;;;;;4999264;28;20226;-71
2023/04/05 06:08:21;;;;;;;21.88;9.50;;;0.80;76.40;;;;;;4994806;28;20194;-73
2023/04/05 06:10:49;;;;;;;25.98;9.98;;;0.90;76.50;;;;;;4994471;28;20254;-71
2023/04/05 06:13:15;;;;;;;17.50;9.80;;;1.00;76.40;;;;;;4995096;28;20207;-73
2023/04/05 06:15:45;;;;;;;20.13;11.05;;;1.10;76.40;;;;;;4998878;28;20201;-72
2023/04/05 06:18:11;;;;;;;19.38;10.05;;;1.10;76.20;;;;;;5005760;28;20187;-71
2023/04/05 06:20:39;;;;;;;20.70;11.20;;;1.30;75.80;;;;;;4997606;28;20194;-73
2023/04/05 06:23:08;;;;;;;16.63;9.65;;;1.40;75.40;;;;;;4992711;28;20716;-72
2023/04/05 06:25:34;;;;;;;16.50;10.00;;;1.50;74.80;;;;;;4991349;28;20206;-72
2023/04/05 06:28:03;;;;;;;20.93;9.50;;;1.70;74.80;;;;;;4994580;28;20634;-72
2023/04/05 06:30:29;;;;;;;20.48;10.52;;;1.70;74.30;;;;;;4994849;28;20418;-73
2023/04/05 06:32:54;;;;;;;20.90;10.47;;;1.80;74.30;;;;;;4993424;28;20188;-71
2023/04/05 06:35:21;;;;;;;19.07;10.40;;;1.80;74.30;;;;;;4994012;28;21014;-73
2023/04/05 06:37:47;;;;;;;20.65;10.77;;;1.90;73.90;;;;;;4998090;28;20213;-72
2023/04/05 06:40:13;;;;;;;49.55;14.15;;;2.00;73.60;;;;;;4995636;28;20253;-72
2023/04/05 06:42:39;;;;;;;17.52;10.15;;;2.00;73.50;;;;;;4995100;28;20678;-72
2023/04/05 06:45:06;;;;;;;24.90;10.83;;;2.10;73.30;;;;;;4992844;28;20326;-72
2023/04/05 06:47:35;;;;;;;20.27;10.45;;;2.20;73.20;;;;;;4993368;28;20437;-72
2023/04/05 06:50:02;;;;;;;21.00;11.57;;;2.20;73.20;;;;;;4994774;28;20191;-72
2023/04/05 06:52:28;;;;;;;21.13;11.95;;;2.30;73.00;;;;;;4998484;28;20210;-70
2023/04/05 06:54:55;;;;;;;30.53;15.90;;;2.40;73.00;;;;;;4992416;28;20288;-71
2023/04/05 06:57:20;;;;;;;24.13;11.77;;;2.50;72.70;;;;;;4994299;28;20568;-70
2023/04/05 06:59:46;;;;;;;22.27;11.80;;;2.60;73.00;;;;;;4995058;28;20273;-73
2023/04/05 07:02:12;;;;;;;22.90;11.07;;;2.60;72.90;;;;;;4993631;28;20182;-71
2023/04/05 07:04:38;;;;;;;21.97;12.40;;;2.70;72.40;;;;;;4995519;28;20208;-72
2023/04/05 07:07:05;;;;;;;23.30;13.20;;;2.70;71.80;;;;;;4995421;28;20210;-72
2023/04/05 07:09:34;;;;;;;21.02;10.82;;;2.70;71.80;;;;;;4996467;28;20414;-73
2023/04/05 07:12:02;;;;;;;19.60;11.20;;;2.80;71.80;;;;;;4998098;28;20182;-70
2023/04/05 07:14:35;;;;;;;19.90;10.67;;;2.80;71.60;;;;;;4994223;28;20500;-69
2023/04/05 07:17:03;;;;;;;17.00;11.27;;;2.90;71.80;;;;;;4995049;28;20425;-72
2023/04/05 07:19:28;;;;;;;19.80;10.77;;;3.00;71.60;;;;;;4997473;28;20443;-71
2023/04/05 07:21:55;;;;;;;32.30;11.87;;;3.00;71.40;;;;;;4997799;28;20421;-71
2023/04/05 07:24:20;;;;;;;20.60;10.23;;;3.00;71.30;;;;;;4998812;28;20220;-73
2023/04/05 07:26:46;;;;;;;23.73;12.00;;;3.10;71.30;;;;;;5002807;28;20460;-71
2023/04/05 07:29:12;;;;;;;18.17;11.13;;;3.20;71.30;;;;;;4998803;28;20189;-71
2023/04/05 07:31:38;;;;;;;20.97;11.83;;;3.20;70.80;;;;;;4994094;28;20189;-72
2023/04/05 07:34:04;;;;;;;22.70;10.67;;;3.20;70.40;;;;;;4993657;28;20207;-72
2023/04/05 07:36:30;;;;;;;23.00;11.90;;;3.20;70.40;;;;;;4992190;28;20456;-70
2023/04/05 07:38:56;;;;;;;20.40;12.00;;;3.30;70.50;;;;;;4993100;28;20186;-72
2023/04/05 07:41:24;;;;;;;21.67;12.10;;;3.30;69.90;;;;;;4993427;28;20430;-73
2023/04/05 07:43:50;;;;;;;22.63;12.10;;;3.50;69.90;;;;;;4983189;28;20462;-72
2023/04/05 07:46:16;;;;;;;20.37;12.10;;;3.50;69.70;;;;;;4995419;28;20465;-71
2023/04/05 07:48:41;;;;;;;22.33;12.20;;;3.60;69.50;;;;;;4992635;28;20251;-71
2023/04/05 07:51:09;;;;;;;28.77;12.47;;;3.70;68.80;;;;;;4992186;28;20425;-72
2023/04/05 07:53:36;;;;;;;23.83;14.90;;;3.70;68.50;;;;;;4989940;28;20272;-73
2023/04/05 07:56:06;;;;;;;22.10;11.73;;;3.80;68.50;;;;;;4992391;28;20528;-71
2023/04/05 07:58:33;;;;;;;23.53;12.40;;;3.90;68.30;;;;;;4986922;28;20466;-72
2023/04/05 08:01:00;;;;;;;25.83;12.23;;;3.90;68.20;;;;;;4991421;28;20478;-72
2023/04/05 08:03:26;;;;;;;21.87;13.40;;;4.00;67.70;;;;;;4989318;28;20510;-72
2023/04/05 08:05:51;;;;;;;23.97;12.17;;;4.00;67.00;;;;;;4991842;28;20498;-72
2023/04/05 08:08:17;;;;;;;20.67;11.93;;;4.00;66.90;;;;;;4995208;28;20186;-70
2023/04/05 08:10:43;;;;;;;20.30;12.90;;;4.00;66.90;;;;;;4996460;28;20608;-72
2023/04/05 08:13:08;;;;;;;25.20;12.30;;;4.10;66.70;;;;;;4991086;28;20277;-72
2023/04/05 08:15:34;;;;;;;22.90;13.03;;;4.30;66.60;;;;;;4995617;28;20265;-71
2023/04/05 08:18:00;;;;;;;26.20;13.80;;;4.40;66.00;;;;;;4991986;28;20179;-70
2023/04/05 08:20:25;;;;;;;22.70;12.60;;;4.50;64.80;;;;;;4997898;28;20512;-70
2023/04/05 08:22:51;;;;;;;24.87;13.10;;;4.60;63.10;;;;;;4992463;28;20232;-72
2023/04/05 08:25:16;;;;;;;28.03;12.23;;;4.50;62.90;;;;;;4990266;28;20560;-70
2023/04/05 08:27:42;;;;;;;21.80;11.80;;;4.60;62.80;;;;;;4991755;28;20183;-71
2023/04/05 08:30:09;;;;;;;20.23;10.90;;;4.60;61.70;;;;;;4992836;28;20175;-72
2023/04/05 08:32:34;;;;;;;21.17;11.50;;;4.60;62.20;;;;;;4992473;28;20595;-72
2023/04/05 08:35:00;;;;;;;23.43;11.53;;;4.70;61.30;;;;;;4990115;28;20511;-71
2023/04/05 08:37:26;;;;;;;22.77;12.03;;;4.90;60.60;;;;;;4991372;28;20198;-72
2023/04/05 08:39:52;;;;;;;22.80;12.37;;;4.90;59.70;;;;;;4995354;28;20187;-71
2023/04/05 08:42:27;;;;;;;19.23;11.77;;;4.90;59.70;;;;;;4990893;28;20434;-71
2023/04/05 08:44:56;;;;;;;19.07;10.50;;;4.90;58.90;;;;;;4988593;28;20209;-69
2023/04/05 08:47:22;;;;;;;15.20;9.30;;;5.00;58.40;;;;;;4991304;28;20472;-72
2023/04/05 08:49:48;;;;;;;17.30;10.60;;;5.10;58.00;;;;;;4992260;28;20421;-72
2023/04/05 08:52:14;;;;;;;20.33;11.53;;;5.20;56.80;;;;;;4992974;28;20461;-72
2023/04/05 08:54:40;;;;;;;17.77;10.63;;;5.40;56.50;;;;;;4990410;28;20210;-70
2023/04/05 08:57:06;;;;;;;16.07;9.70;;;5.50;55.70;;;;;;4992065;28;20455;-70
2023/04/05 08:59:36;;;;;;;20.87;9.30;;;5.50;54.60;;;;;;4993106;28;20676;-70
2023/04/05 09:02:05;;;;;;;14.10;8.70;;;5.50;55.60;;;;;;4993966;28;20452;-71
2023/04/05 09:04:38;;;;;;;22.13;10.00;;;5.60;54.80;;;;;;4988839;28;20479;-72
2023/04/05 09:07:07;;;;;;;15.73;8.87;;;5.70;53.20;;;;;;4996101;28;20496;-70
2023/04/05 09:09:36;;;;;;;13.83;9.10;;;5.70;52.20;;;;;;4996183;28;20437;-70
2023/04/05 09:12:06;;;;;;;12.73;7.83;;;5.70;50.90;;;;;;4996508;28;20414;-70
2023/04/05 09:14:33;;;;;;;13.03;8.30;;;5.80;51.60;;;;;;4989910;28;20468;-70
2023/04/05 09:17:02;;;;;;;17.23;8.73;;;5.80;51.30;;;;;;5000269;28;20502;-73
2023/04/05 09:19:28;;;;;;;16.00;8.90;;;5.80;51.00;;;;;;4997741;28;20414;-71
2023/04/05 09:21:57;;;;;;;15.50;8.97;;;5.80;51.00;;;;;;4997589;28;20434;-73
2023/04/05 09:24:35;;;;;;;13.73;8.10;;;5.80;51.30;;;;;;4994508;28;20215;-73
2023/04/05 09:27:15;;;;;;;12.90;7.50;;;5.90;49.10;;;;;;4991586;28;20556;-72
2023/04/05 09:29:44;;;;;;;14.50;6.87;;;6.00;48.70;;;;;;4985919;28;20910;-71
2023/04/05 09:32:11;;;;;;;11.97;7.27;;;5.90;49.90;;;;;;4992038;28;20908;-71
2023/04/05 09:34:37;;;;;;;15.83;8.43;;;6.00;49.30;;;;;;4989473;28;20465;-72
2023/04/05 09:37:18;;;;;;;13.03;7.20;;;6.10;49.70;;;;;;4990518;28;20437;-70
2023/04/05 09:39:46;;;;;;;11.27;7.47;;;6.30;49.30;;;;;;4992360;28;20421;-71
2023/04/05 09:42:14;;;;;;;12.60;7.70;;;6.30;48.10;;;;;;4990930;28;20422;-71
2023/04/05 09:44:53;;;;;;;10.10;7.60;;;6.30;48.50;;;;;;4990848;28;20981;-71
2023/04/05 09:47:20;;;;;;;12.07;6.90;;;6.20;47.70;;;;;;4993387;28;20472;-70
2023/04/05 09:49:46;;;;;;;13.37;7.37;;;6.20;48.10;;;;;;4994115;28;20426;-70
2023/04/05 09:52:27;;;;;;;12.40;7.97;;;6.20;48.30;;;;;;4989884;28;20424;-70
2023/04/05 09:54:55;;;;;;;11.10;7.50;;;6.10;47.50;;;;;;4993037;28;20685;-71
2023/04/05 09:57:29;;;;;;;9.37;6.57;;;6.00;47.90;;;;;;4990622;28;20930;-71
2023/04/05 09:59:55;;;;;;;12.00;6.97;;;6.00;48.20;;;;;;4993036;28;20438;-71
2023/04/05 10:02:21;;;;;;;13.97;7.57;;;6.00;47.40;;;;;;4992926;28;20425;-72
2023/04/05 10:04:48;;;;;;;12.17;7.53;;;5.90;48.20;;;;;;4988597;28;20241;-71
2023/04/05 10:07:15;;;;;;;9.90;6.83;;;6.10;48.50;;;;;;4997105;28;20475;-72
2023/04/05 10:09:42;;;;;;;10.43;7.67;;;6.20;47.80;;;;;;4989317;28;20437;-72
2023/04/05 10:12:09;;;;;;;13.50;7.30;;;6.40;48.10;;;;;;4991032;28;20426;-69
2023/04/05 10:14:36;;;;;;;10.40;7.73;;;6.50;47.00;;;;;;4987174;28;20500;-72
2023/04/05 10:17:24;;;;;;;11.50;6.80;;;6.60;46.60;;;;;;4986196;28;20421;-72
2023/04/05 10:20:15;;;;;;;10.27;7.07;;;6.70;46.90;;;;;;4990473;28;20434;-72
2023/04/05 10:23:30;;;;;;;13.10;6.73;;;6.90;46.30;;;;;;4986568;28;20444;-73
2023/04/05 10:26:14;;;;;;;10.47;7.30;;;7.00;45.80;;;;;;4962707;28;20474;-73
2023/04/05 10:28:44;;;;;;;10.20;6.50;;;7.00;45.70;;;;;;4968395;28;20461;-72
2023/04/05 10:31:27;;;;;;;15.93;8.17;;;7.10;46.50;;;;;;4968644;28;20438;-72
2023/04/05 10:34:07;;;;;;;10.70;7.27;;;7.20;46.50;;;;;;4963682;28;20462;-71
2023/04/05 10:36:49;;;;;;;12.77;8.00;;;7.10;46.30;;;;;;4968695;28;20520;-71
2023/04/05 10:39:26;;;;;;;12.33;7.57;;;7.00;46.60;;;;;;4975758;28;20501;-71
2023/04/05 10:41:56;;;;;;;12.67;7.40;;;7.10;46.30;;;;;;4953368;28;20486;-70
2023/04/05 10:44:22;;;;;;;10.37;7.17;;;7.20;46.20;;;;;;4970112;28;20477;-72
2023/04/05 10:46:49;;;;;;;24.47;8.40;;;7.30;46.30;;;;;;4954847;28;20478;-72
2023/04/05 10:49:17;;;;;;;15.40;7.87;;;7.40;46.10;;;;;;4972578;28;20282;-72
2023/04/05 10:51:44;;;;;;;14.47;8.07;;;7.70;45.40;;;;;;4972609;28;20488;-72
2023/04/05 10:54:10;;;;;;;11.30;7.60;;;8.00;44.10;;;;;;4970735;28;20458;-73
2023/04/05 10:56:37;;;;;;;11.10;7.00;;;8.50;43.00;;;;;;4981610;28;21320;-71
2023/04/05 10:59:04;;;;;;;11.70;7.10;;;8.70;41.80;;;;;;4991321;28;20437;-71
2023/04/05 11:01:30;;;;;;;9.37;6.63;;;8.80;42.00;;;;;;4993790;28;20445;-70
2023/04/05 11:03:55;;;;;;;9.53;6.30;;;8.90;41.50;;;;;;4990743;28;20556;-70
2023/04/05 11:06:27;;;;;;;12.43;7.53;;;9.20;41.20;;;;;;4992149;28;20592;-71
2023/04/05 11:09:15;;;;;;;10.90;7.13;;;9.30;40.30;;;;;;4991229;28;20245;-71
2023/04/05 11:11:43;;;;;;;18.70;7.40;;;9.30;39.50;;;;;;4989161;28;20475;-72
2023/04/05 11:14:34;;;;;;;10.73;6.83;;;9.30;39.80;;;;;;4991572;28;20472;-72
2023/04/05 11:16:59;;;;;;;10.80;7.07;;;9.30;40.40;;;;;;4988625;28;20441;-72
2023/04/05 11:19:46;;;;;;;10.37;6.77;;;9.30;40.00;;;;;;4993875;28;20560;-73
2023/04/05 11:22:22;;;;;;;10.50;6.67;;;9.30;40.00;;;;;;4994237;28;20231;-71
2023/04/05 11:24:56;;;;;;;10.23;7.10;;;9.30;40.20;;;;;;4991176;28;20457;-71
2023/04/05 11:27:29;;;;;;;12.93;7.70;;;9.40;40.20;;;;;;4990247;28;20504;-72
2023/04/05 11:29:57;;;;;;;11.23;6.70;;;9.50;39.90;;;;;;4986893;28;20430;-72
2023/04/05 11:32:36;;;;;;;12.53;7.23;;;9.60;40.30;;;;;;4990515;28;20458;-71
2023/04/05 11:35:07;;;;;;;10.57;7.30;;;9.90;38.80;;;;;;4988006;28;20492;-71
2023/04/05 11:38:04;;;;;;;11.30;7.47;;;9.70;39.10;;;;;;4990620;28;20488;-71
2023/04/05 11:40:33;;;;;;;10.00;6.60;;;10.00;38.80;;;;;;4985815;28;20833;-71
2023/04/05 11:43:07;;;;;;;10.17;6.50;;;9.70;38.40;;;;;;4991695;28;20788;-73
2023/04/05 11:45:34;;;;;;;9.57;7.40;;;9.90;38.70;;;;;;4993707;28;20473;-72
2023/04/05 11:48:07;;;;;;;14.40;7.33;;;10.00;38.70;;;;;;4987076;28;20430;-73
2023/04/05 11:50:33;;;;;;;9.27;6.33;;;10.40;38.60;;;;;;4992446;28;20418;-71
2023/04/05 11:53:13;;;;;;;8.53;6.60;;;10.80;36.70;;;;;;4995086;28;20425;-71
2023/04/05 11:55:41;;;;;;;9.57;6.50;;;11.00;36.00;;;;;;4987815;28;20429;-70
2023/04/05 11:58:24;;;;;;;10.90;7.13;;;10.80;36.00;;;;;;4990805;28;20445;-72
2023/04/05 12:01:06;;;;;;;11.10;7.07;;;10.30;36.80;;;;;;4993780;28;20435;-72
2023/04/05 12:03:32;;;;;;;11.83;6.90;;;10.00;37.20;;;;;;4992547;28;20541;-71
2023/04/05 12:06:03;;;;;;;10.80;7.13;;;9.80;37.80;;;;;;4992538;28;20563;-73
2023/04/05 12:08:39;;;;;;;9.07;5.83;;;9.90;37.80;;;;;;4994572;28;20508;-71
2023/04/05 12:11:07;;;;;;;10.47;6.60;;;10.30;37.10;;;;;;4995567;28;20421;-71
2023/04/05 12:13:36;;;;;;;10.97;7.00;;;10.40;36.60;;;;;;4985661;28;20467;-70
2023/04/05 12:16:04;;;;;;;10.47;7.03;;;10.30;37.10;;;;;;4992337;28;20430;-71
2023/04/05 12:18:31;;;;;;;9.57;7.20;;;10.40;36.80;;;;;;4996241;28;20445;-72
2023/04/05 12:20:58;;;;;;;10.03;6.83;;;10.50;37.00;;;;;;4995488;28;20512;-73
2023/04/05 12:23:24;;;;;;;10.47;7.47;;;10.50;36.70;;;;;;5001371;28;20516;-70
2023/04/05 12:25:53;;;;;;;8.77;6.47;;;10.30;36.60;;;;;;4992100;28;20861;-71
2023/04/05 12:28:19;;;;;;;11.93;6.83;;;10.50;37.10;;;;;;4998290;28;20480;-70
2023/04/05 12:30:49;;;;;;;10.30;6.87;;;10.70;35.60;;;;;;4993134;28;20422;-71
2023/04/05 12:33:14;;;;;;;13.73;7.20;;;10.60;36.70;;;;;;4992735;28;20683;-73
2023/04/05 12:35:40;;;;;;;8.10;6.57;;;10.10;36.70;;;;;;4993424;28;20433;-71
2023/04/05 12:38:06;;;;;;;9.00;6.27;;;9.90;37.10;;;;;;4993235;28;20425;-71
2023/04/05 12:40:39;;;;;;;10.80;7.63;;;10.00;36.70;;;;;;4998092;28;20196;-70
2023/04/05 12:43:07;;;;;;;12.87;7.53;;;10.30;36.70;;;;;;4987921;28;20426;-71
2023/04/05 12:45:38;;;;;;;12.90;7.97;;;10.70;35.90;;;;;;4992971;28;20420;-69
2023/04/05 12:48:27;;;;;;;12.07;7.50;;;10.90;36.20;;;;;;4998136;28;20425;-71
2023/04/05 12:50:53;;;;;;;10.50;7.37;;;10.80;35.10;;;;;;4992392;28;20925;-70
2023/04/05 12:53:27;;;;;;;9.83;7.23;;;10.50;35.90;;;;;;4993900;28;20479;-70